Time;durP1;ratioP1;P1;durP2;ratioP2;P2;SDS_P1;SDS_P2;PMS_P1;PMS_P2;Temp;Humidity;BMP_temperature;BMP_pressure;BME280_temperature;BME280_humidity;BME280_pressure;Samples;Min_cycle;Max_cycle;Signal;HPM_P1;HPM_P2
2023/09/17 00:00:11;;;;;;;8.20;7.50;;;19.10;99.90;;;19.99;93.81;97750.34;10330960;28;20774;-85
2023/09/17 00:05:16;;;;;;;8.10;7.45;;;19.10;99.90;;;19.98;93.70;97754.69;10338385;28;20227;-85
2023/09/17 00:10:19;;;;;;;8.40;7.70;;;19.10;99.90;;;20.01;93.72;97753.84;10349930;28;20231;-85
2023/09/17 00:15:25;;;;;;;8.40;7.70;;;19.20;99.90;;;20.01;93.82;97756.47;10345835;28;20227;-84
2023/09/17 00:20:29;;;;;;;8.63;8.02;;;19.10;99.90;;;20.05;93.35;97757.38;10339085;28;20235;-85
2023/09/17 00:25:33;;;;;;;8.07;7.47;;;19.20;99.90;;;20.03;93.50;97766.03;10342133;28;20238;-85
2023/09/17 00:30:36;;;;;;;7.95;7.25;;;19.10;99.90;;;20.07;93.17;97755.69;10337931;28;21426;-85
2023/09/17 00:35:41;;;;;;;7.57;6.97;;;19.10;99.90;;;20.00;93.92;97754.69;10334469;28;20614;-84
2023/09/17 00:40:44;;;;;;;7.43;6.88;;;19.00;99.90;;;19.89;95.09;97764.88;10336145;28;20246;-83
2023/09/17 00:45:48;;;;;;;8.85;8.05;;;19.00;99.90;;;19.82;95.09;97752.63;10330261;28;20219;-84
2023/09/17 00:50:52;;;;;;;7.60;7.07;;;18.90;99.90;;;19.76;95.28;97744.75;10335200;28;20242;-84
2023/09/17 00:55:56;;;;;;;8.13;7.43;;;18.90;99.90;;;19.73;95.32;97744.69;10335982;28;20393;-85
2023/09/17 01:01:01;;;;;;;8.65;7.85;;;18.80;99.90;;;19.50;96.50;97741.63;10332410;28;20227;-85
2023/09/17 01:06:07;;;;;;;7.00;6.50;;;18.60;99.90;;;19.36;97.36;97743.91;10333295;28;20227;-83
2023/09/17 01:11:11;;;;;;;8.02;7.38;;;18.50;99.90;;;19.32;97.53;97744.72;10331948;28;20223;-83
2023/09/17 01:16:15;;;;;;;8.82;8.13;;;18.40;99.90;;;19.26;97.66;97748.06;10334576;28;20227;-84
2023/09/17 01:21:27;;;;;;;7.63;7.13;;;18.40;99.90;;;19.13;98.04;97748.63;10329090;28;20230;-84
2023/09/17 01:26:32;;;;;;;8.95;8.20;;;18.20;99.90;;;19.10;98.26;97752.03;10326199;28;20219;-85
2023/09/17 01:31:36;;;;;;;8.63;7.90;;;18.20;99.90;;;18.99;98.86;97747.44;10331977;28;20226;-84
2023/09/17 01:36:42;;;;;;;8.85;8.15;;;18.10;99.90;;;18.99;99.10;97752.63;10328677;28;20295;-84
2023/09/17 01:41:46;;;;;;;9.10;8.35;;;18.10;99.90;;;18.86;99.30;97773.09;10334802;28;20231;-84
2023/09/17 01:46:52;;;;;;;8.75;8.07;;;18.00;99.90;;;18.80;99.26;97769.47;10329069;28;20789;-85
2023/09/17 01:51:56;;;;;;;8.15;7.55;;;17.90;99.90;;;18.91;98.90;97780.94;10329502;28;20644;-85
2023/09/17 01:56:59;;;;;;;8.85;8.18;;;18.00;99.90;;;18.72;99.99;97784.81;10331978;28;20222;-83
2023/09/17 02:02:04;;;;;;;8.68;8.07;;;17.80;99.90;;;18.75;99.69;97778.84;10329336;28;20298;-84
2023/09/17 02:07:08;;;;;;;8.88;8.18;;;17.80;99.90;;;18.61;100.00;97775.91;10326893;28;20298;-84
2023/09/17 02:12:11;;;;;;;9.23;8.43;;;17.70;99.90;;;18.61;100.00;97786.25;10329976;28;20633;-85
2023/09/17 02:17:18;;;;;;;9.40;8.70;;;17.70;99.90;;;18.57;100.00;97787.91;10329815;28;20285;-84
2023/09/17 02:22:21;;;;;;;9.40;8.68;;;17.80;99.90;;;18.79;99.82;97778.06;10331524;28;20231;-85
2023/09/17 02:27:25;;;;;;;9.00;8.13;;;17.80;99.90;;;18.64;100.00;97775.97;10331353;28;20267;-84
2023/09/17 02:32:29;;;;;;;9.75;8.90;;;17.80;99.90;;;18.61;100.00;97783.66;10331780;28;20273;-85
2023/09/17 02:37:33;;;;;;;8.65;8.00;;;17.80;99.90;;;18.59;100.00;97785.34;10332697;28;20218;-85
2023/09/17 02:42:36;;;;;;;9.57;8.77;;;17.70;99.90;;;18.46;100.00;97779.88;10327972;28;20224;-85
2023/09/17 02:47:41;;;;;;;9.40;8.50;;;17.60;99.90;;;18.42;100.00;97769.38;10331902;28;20599;-85
2023/09/17 02:52:45;;;;;;;9.48;8.60;;;17.60;99.90;;;18.38;100.00;97767.56;10332191;28;20342;-85
2023/09/17 02:57:48;;;;;;;9.15;8.35;;;17.50;99.90;;;18.43;100.00;97772.03;10331236;28;20234;-86
2023/09/17 03:02:54;;;;;;;8.95;8.25;;;17.60;99.90;;;18.40;100.00;97774.53;10329018;28;20916;-86
2023/09/17 03:08:00;;;;;;;9.70;8.88;;;17.60;99.90;;;18.45;100.00;97775.50;10343692;28;20243;-84
2023/09/17 03:13:04;;;;;;;9.30;8.50;;;17.50;99.90;;;18.41;100.00;97778.88;10348076;28;20235;-84
2023/09/17 03:18:09;;;;;;;9.30;8.60;;;17.50;99.90;;;18.31;100.00;97784.63;10330873;28;20323;-83
2023/09/17 03:23:12;;;;;;;9.82;9.02;;;17.40;99.90;;;18.27;100.00;97792.31;10321148;28;20230;-84
2023/09/17 03:28:15;;;;;;;8.98;8.27;;;17.40;99.90;;;18.29;100.00;97794.09;10318478;28;20243;-84
2023/09/17 03:33:20;;;;;;;8.95;8.25;;;17.30;99.90;;;18.22;100.00;97797.34;10321106;28;20318;-85
2023/09/17 03:38:23;;;;;;;9.23;8.52;;;17.30;99.90;;;18.16;100.00;97797.19;10329677;28;20270;-85
2023/09/17 03:43:29;;;;;;;9.18;8.40;;;17.20;99.90;;;18.04;100.00;97796.88;10332301;28;20250;-85
2023/09/17 03:48:34;;;;;;;9.15;8.45;;;17.20;99.90;;;17.91;100.00;97793.97;10326902;28;20270;-84
2023/09/17 03:53:37;;;;;;;9.23;8.43;;;17.10;99.90;;;17.74;100.00;97798.66;10332021;28;20234;-84
2023/09/17 03:58:42;;;;;;;9.98;9.07;;;16.90;99.90;;;17.74;100.00;97800.34;10320993;28;20910;-84
2023/09/17 04:03:49;;;;;;;9.80;9.00;;;16.90;99.90;;;17.72;100.00;97805.47;10321303;28;20763;-85
2023/09/17 04:08:53;;;;;;;9.80;8.95;;;16.90;99.90;;;17.65;100.00;97800.09;10320335;28;20291;-84
2023/09/17 04:13:57;;;;;;;9.18;8.48;;;16.80;99.90;;;17.64;100.00;97806.97;10316642;28;20266;-85
2023/09/17 04:19:02;;;;;;;9.40;8.60;;;16.80;99.90;;;17.58;100.00;97805.94;10314147;28;20218;-85
2023/09/17 04:24:06;;;;;;;9.35;8.52;;;16.70;99.90;;;17.59;100.00;97808.53;10315299;28;20663;-85
2023/09/17 04:29:10;;;;;;;9.52;8.73;;;16.60;99.90;;;17.46;100.00;97817.66;10323602;28;20323;-85
2023/09/17 04:34:15;;;;;;;10.90;9.88;;;16.60;99.90;;;17.49;100.00;97816.88;10319462;28;20271;-84
2023/09/17 04:39:18;;;;;;;10.48;9.65;;;16.60;99.90;;;17.55;100.00;97824.81;10320804;28;20239;-84
2023/09/17 04:44:22;;;;;;;9.77;9.00;;;16.60;99.90;;;17.40;100.00;97817.50;10324688;28;20230;-84
2023/09/17 04:49:26;;;;;;;9.95;9.15;;;16.50;99.90;;;17.35;100.00;97813.88;10319830;28;20238;-84
2023/09/17 04:54:30;;;;;;;10.25;9.27;;;16.50;99.90;;;17.31;100.00;97814.59;10315131;28;20239;-83
2023/09/17 04:59:33;;;;;;;10.43;9.60;;;16.50;99.90;;;17.35;100.00;97813.88;10319357;28;20285;-85
2023/09/17 05:04:38;;;;;;;9.98;9.20;;;16.60;99.90;;;17.41;100.00;97814.06;10314913;28;20235;-83
2023/09/17 05:09:42;;;;;;;10.02;9.30;;;16.60;99.90;;;17.38;100.00;97808.81;10310734;28;20599;-85
2023/09/17 05:14:45;;;;;;;10.27;9.48;;;16.50;99.90;;;17.23;100.00;97826.44;10318429;28;20643;-84
2023/09/17 05:19:50;;;;;;;10.18;9.48;;;16.50;99.90;;;17.33;100.00;97829.31;10311957;28;20238;-84
2023/09/17 05:24:53;;;;;;;10.43;9.52;;;16.50;99.90;;;17.43;100.00;97835.66;10320804;28;20250;-84
2023/09/17 05:29:56;;;;;;;10.23;9.18;;;16.70;99.90;;;17.47;100.00;97840.06;10328489;28;20277;-84
2023/09/17 05:35:02;;;;;;;11.13;10.18;;;16.80;99.90;;;17.63;100.00;97850.88;10318999;28;20230;-83
2023/09/17 05:40:08;;;;;;;10.10;9.30;;;16.90;99.90;;;17.79;100.00;97847.91;10334336;28;20234;-85
2023/09/17 05:45:11;;;;;;;9.82;9.02;;;17.10;99.90;;;18.10;100.00;97839.31;10341574;28;20226;-83
2023/09/17 05:50:17;;;;;;;10.32;9.30;;;17.30;99.90;;;18.61;99.78;97848.41;10342224;28;20715;-85
2023/09/17 05:55:20;;;;;;;10.38;9.45;;;17.60;99.90;;;19.03;96.69;97853.78;10343950;28;20219;-85
2023/09/17 06:00:23;;;;;;;9.82;8.70;;;18.00;99.90;;;19.02;95.01;97861.50;10330117;28;20258;-83
2023/09/17 06:05:28;;;;;;;9.48;8.68;;;17.90;99.90;;;19.00;94.27;97858.00;10326684;28;20236;-81
2023/09/17 06:10:31;;;;;;;10.32;9.43;;;17.90;99.90;;;18.75;95.68;97860.00;10322899;28;20703;-85
2023/09/17 06:15:35;;;;;;;8.80;8.10;;;17.60;99.90;;;18.60;96.63;97855.28;10321974;28;20719;-85
2023/09/17 06:20:40;;;;;;;9.23;8.48;;;17.60;99.90;;;18.63;97.22;97854.50;10319577;28;20227;-85
2023/09/17 06:25:43;;;;;;;8.52;7.82;;;17.70;99.90;;;19.52;94.92;97864.38;10320764;28;20226;-84
2023/09/17 06:30:48;;;;;;;8.93;8.23;;;18.40;99.90;;;19.99;91.73;97872.31;10328725;28;20725;-85
2023/09/17 06:35:52;;;;;;;8.98;8.27;;;18.80;99.90;;;20.97;85.69;97865.44;10320584;28;20230;-85
2023/09/17 06:40:56;;;;;;;9.77;8.98;;;19.70;99.90;;;21.14;86.10;97859.66;10311937;28;20226;-83
2023/09/17 06:45:59;;;;;;;9.82;8.93;;;20.10;99.90;;;21.70;82.48;97852.69;10311857;28;20394;-83
2023/09/17 06:51:04;;;;;;;9.07;8.38;;;20.50;99.90;;;21.69;82.21;97856.13;10307779;28;20232;-84
2023/09/17 06:56:08;;;;;;;9.85;9.15;;;20.40;99.90;;;21.44;82.69;97866.22;10315345;28;20215;-85
2023/09/17 07:01:11;;;;;;;9.80;8.98;;;20.20;99.90;;;21.26;84.34;97872.00;10319242;28;22053;-83
2023/09/17 07:06:18;;;;;;;9.70;9.00;;;20.00;99.90;;;21.84;81.00;97864.13;10307852;28;20729;-83
2023/09/17 07:11:21;;;;;;;9.40;8.68;;;20.70;99.90;;;22.04;80.47;97856.56;10319872;28;20258;-84
2023/09/17 07:16:24;;;;;;;9.68;8.98;;;20.80;99.90;;;21.90;82.27;97847.72;10330781;28;20253;-84
2023/09/17 07:21:29;;;;;;;9.80;8.93;;;20.90;99.90;;;21.98;81.55;97856.50;10333891;28;20231;-85
2023/09/17 07:26:33;;;;;;;9.98;9.10;;;21.00;99.90;;;22.10;81.61;97837.53;10333728;28;20257;-85
2023/09/17 07:31:36;;;;;;;10.65;9.85;;;21.00;99.90;;;22.64;81.03;97854.63;10338347;28;20231;-85
2023/09/17 07:36:41;;;;;;;10.40;9.45;;;21.80;99.90;;;23.28;77.18;97855.16;10329539;28;20239;-82
2023/09/17 07:41:44;;;;;;;10.05;9.25;;;22.50;99.90;;;23.45;75.06;97868.28;10334699;28;20223;-83
2023/09/17 07:46:47;;;;;;;9.77;8.98;;;22.60;99.90;;;23.63;75.12;97869.25;10328631;28;20242;-82
2023/09/17 07:51:53;;;;;;;9.35;8.55;;;22.80;99.90;;;23.75;74.56;97864.13;10327082;28;20303;-81
2023/09/17 07:56:56;;;;;;;9.07;8.43;;;23.00;99.90;;;24.43;73.25;97871.38;10328470;28;20286;-82
2023/09/17 08:02:00;;;;;;;8.57;7.97;;;23.60;99.90;;;24.89;69.19;97871.41;10359326;28;20238;-81
2023/09/17 08:07:05;;;;;;;8.85;8.25;;;24.10;99.90;;;25.30;67.00;97873.19;10357245;28;20225;-84
2023/09/17 08:12:09;;;;;;;8.90;8.30;;;24.50;99.90;;;25.27;67.57;97877.56;10358606;28;20223;-84
2023/09/17 08:17:13;;;;;;;8.48;7.68;;;24.40;99.90;;;25.32;67.19;97886.25;10359226;28;20233;-84
2023/09/17 08:22:17;;;;;;;9.15;8.45;;;24.40;99.90;;;25.25;66.75;97887.16;10357597;28;20290;-83
2023/09/17 08:27:21;;;;;;;8.02;7.43;;;24.30;99.90;;;25.42;67.18;97885.41;10364066;28;20369;-85
2023/09/17 08:32:24;;;;;;;8.05;7.45;;;24.40;99.90;;;25.52;66.92;97887.09;10373288;28;20282;-84
2023/09/17 08:37:29;;;;;;;8.60;7.90;;;24.70;99.90;;;25.76;67.25;97890.56;10361638;28;20234;-85
2023/09/17 08:42:33;;;;;;;8.48;7.72;;;24.90;99.90;;;25.97;65.22;97893.13;10341838;28;20253;-81
2023/09/17 08:47:37;;;;;;;7.57;7.05;;;25.10;99.90;;;26.28;65.08;97882.50;10353280;28;20402;-82
2023/09/17 08:52:47;;;;;;;7.35;6.85;;;25.30;99.90;;;26.31;65.08;97881.63;10333915;28;20226;-80
2023/09/17 08:58:10;;;;;;;7.68;7.15;;;25.30;99.90;;;26.58;63.91;97885.88;10332707;28;20261;-83
2023/09/17 09:03:16;;;;;;;7.80;6.80;;;25.60;99.90;;;26.79;62.16;97890.97;10346629;28;20222;-80
2023/09/17 09:08:26;;;;;;;6.85;6.35;;;25.80;99.90;;;26.90;61.13;97890.91;10338944;28;20238;-82
2023/09/17 09:13:30;;;;;;;7.22;6.63;;;25.80;99.90;;;27.34;60.64;97880.06;10331786;28;20235;-80
2023/09/17 09:18:35;;;;;;;6.68;6.18;;;26.60;99.90;;;27.71;57.98;97874.41;10331063;28;20594;-81
2023/09/17 09:23:39;;;;;;;6.28;5.78;;;27.00;99.90;;;27.79;55.27;97877.88;10330688;28;20227;-81
2023/09/17 09:28:42;;;;;;;5.43;5.03;;;27.10;99.90;;;27.75;54.18;97881.38;10333880;28;20219;-82
2023/09/17 09:33:46;;;;;;;5.82;5.43;;;27.10;99.90;;;28.03;52.73;97879.31;10323727;28;20232;-81
2023/09/17 09:38:51;;;;;;;4.70;4.30;;;27.40;99.90;;;28.39;50.22;97889.41;10322366;28;20238;-82
2023/09/17 09:43:56;;;;;;;4.75;4.28;;;27.70;97.80;;;28.56;48.87;97882.19;10331578;28;20723;-80
2023/09/17 09:49:01;;;;;;;4.53;4.13;;;27.90;97.50;;;28.92;47.73;97869.34;10333570;28;20238;-82
2023/09/17 09:54:06;;;;;;;4.43;4.13;;;28.00;96.40;;;28.97;47.59;97870.13;10336303;28;20222;-81
2023/09/17 09:59:10;;;;;;;4.78;4.38;;;28.30;96.10;;;28.83;47.62;97858.97;10325327;28;22099;-81
2023/09/17 10:04:14;;;;;;;4.15;3.80;;;28.10;95.40;;;28.74;46.60;97855.56;10336517;28;22242;-81
2023/09/17 10:09:20;;;;;;;3.70;3.42;;;28.10;94.50;;;28.98;46.53;97842.91;10342201;28;20310;-82
2023/09/17 10:14:27;;;;;;;3.95;3.28;;;28.40;94.50;;;29.23;44.90;97842.53;10340172;28;20261;-82
2023/09/17 10:19:34;;;;;;;5.07;3.83;;;28.60;93.50;;;29.44;44.67;97831.59;10340646;28;20230;-81
2023/09/17 10:24:40;;;;;;;3.40;3.10;;;28.80;93.20;;;29.37;44.89;97825.56;10336446;28;20801;-81
2023/09/17 10:29:49;;;;;;;3.65;3.33;;;28.80;92.90;;;29.61;43.51;97816.31;10335687;28;20261;-81
2023/09/17 10:34:57;;;;;;;3.67;2.90;;;29.00;91.80;;;29.68;42.29;97809.22;10307817;28;20238;-82
2023/09/17 10:40:08;;;;;;;3.67;2.63;;;29.20;90.80;;;29.26;42.51;97795.94;10323110;28;20289;-80
2023/09/17 10:45:11;;;;;;;5.93;2.95;;;28.80;90.50;;;29.39;42.53;97797.44;10320620;28;20246;-82
2023/09/17 10:50:16;;;;;;;5.07;3.30;;;28.80;90.70;;;29.41;42.81;97797.41;10319335;28;20249;-81
2023/09/17 10:55:23;;;;;;;3.42;2.80;;;28.80;91.20;;;29.45;43.62;97791.19;10323400;28;20250;-81
2023/09/17 11:00:31;;;;;;;4.55;3.00;;;28.80;91.40;;;29.82;41.19;97790.47;10327496;28;20292;-80
2023/09/17 11:05:39;;;;;;;3.15;2.53;;;29.20;90.10;;;29.64;41.84;97789.06;10325217;28;20238;-82
2023/09/17 11:10:44;;;;;;;3.50;2.50;;;29.20;90.00;;;29.54;41.48;97777.84;10321835;28;20238;-82
2023/09/17 11:15:48;;;;;;;6.03;2.95;;;29.00;89.20;;;29.47;43.36;97792.00;10338732;28;20731;-80
2023/09/17 11:21:00;;;;;;;3.63;2.65;;;28.80;90.90;;;29.42;43.77;97780.72;10333904;28;20249;-81
2023/09/17 11:26:06;;;;;;;4.05;2.67;;;28.80;91.30;;;29.61;41.79;97771.53;10331166;28;20230;-83
2023/09/17 11:31:13;;;;;;;5.25;2.60;;;28.80;90.10;;;29.76;41.55;97780.03;10342355;28;20230;-82
2023/09/17 11:36:17;;;;;;;5.05;2.97;;;29.00;89.70;;;29.92;41.38;97780.59;10341548;28;20374;-82
2023/09/17 11:41:30;;;;;;;4.30;2.72;;;29.20;89.40;;;30.08;39.84;97777.59;10342496;28;20231;-81
2023/09/17 11:46:34;;;;;;;4.55;2.47;;;29.30;87.30;;;30.04;39.92;97775.91;10345852;28;20223;-82
2023/09/17 11:51:43;;;;;;;3.65;2.50;;;29.30;87.50;;;30.22;39.48;97776.47;10343134;28;20593;-79
2023/09/17 11:56:52;;;;;;;3.47;2.58;;;29.50;86.30;;;30.01;40.12;97765.44;10339486;28;20300;-80
2023/09/17 12:01:57;;;;;;;4.65;2.65;;;29.20;88.00;;;30.03;40.52;97757.50;10339764;28;20223;-81
2023/09/17 12:07:01;;;;;;;3.67;2.67;;;29.20;88.90;;;29.90;41.64;97754.25;10335763;28;20317;-82
2023/09/17 12:12:06;;;;;;;4.22;2.58;;;29.10;90.10;;;30.03;41.44;97747.81;10350727;28;20234;-82
2023/09/17 12:17:09;;;;;;;5.45;2.90;;;29.20;89.30;;;29.83;40.97;97740.34;10355242;28;20657;-80
2023/09/17 12:22:13;;;;;;;4.88;2.90;;;29.00;88.30;;;30.03;41.89;97734.63;10339451;28;20241;-83
2023/09/17 12:27:24;;;;;;;3.13;2.70;;;29.20;90.00;;;30.56;39.30;97728.13;10333999;28;20227;-82
2023/09/17 12:32:30;;;;;;;4.68;2.50;;;29.90;85.50;;;30.23;40.97;97717.53;10330192;28;20237;-81
2023/09/17 12:37:34;;;;;;;3.88;2.35;;;29.50;88.20;;;30.25;41.15;97715.72;10331447;28;20276;-84
2023/09/17 12:42:39;;;;;;;3.78;2.67;;;29.40;88.90;;;30.39;41.50;97713.63;10336074;28;20238;-86
2023/09/17 12:47:44;;;;;;;4.20;2.58;;;29.50;89.20;;;30.39;41.30;97710.97;10353102;28;20234;-82
2023/09/17 12:52:47;;;;;;;3.63;2.67;;;29.50;89.20;;;30.54;40.94;97712.34;10338673;28;20234;-81
2023/09/17 12:57:52;;;;;;;5.35;2.50;;;29.60;89.20;;;30.55;39.89;97713.22;10341914;28;20234;-83
2023/09/17 13:02:55;;;;;;;3.40;2.55;;;29.70;86.50;;;30.90;39.08;97709.69;10316877;28;20318;-82
2023/09/17 13:07:59;;;;;;;4.82;2.50;;;30.10;85.60;;;30.89;39.24;97706.19;10309387;28;20326;-83
2023/09/17 13:13:06;;;;;;;3.67;2.33;;;30.30;85.10;;;30.38;40.54;97698.66;10314608;28;20223;-83
2023/09/17 13:18:10;;;;;;;4.93;2.55;;;29.60;87.00;;;30.33;40.08;97697.91;10318536;28;20226;-80
2023/09/17 13:23:14;;;;;;;3.85;2.75;;;29.50;86.80;;;30.45;40.09;97681.81;10323991;28;20231;-80
2023/09/17 13:28:19;;;;;;;3.80;2.60;;;29.60;86.60;;;30.37;40.69;97683.75;10321246;28;20234;-82
2023/09/17 13:33:22;;;;;;;3.72;2.78;;;29.60;87.30;;;30.36;40.75;97683.78;10320776;28;20234;-80
2023/09/17 13:38:26;;;;;;;5.10;2.88;;;29.60;87.20;;;30.12;41.42;97687.88;10330260;28;20290;-85
2023/09/17 13:43:31;;;;;;;3.13;2.90;;;29.40;87.80;;;30.11;41.38;97681.72;10333838;28;20222;-83
2023/09/17 13:48:34;;;;;;;7.20;3.20;;;29.50;87.70;;;30.36;41.69;97678.50;10334038;28;20230;-86
2023/09/17 13:53:38;;;;;;;4.95;3.08;;;29.70;88.20;;;30.05;40.40;97676.59;10344596;28;20241;-83
2023/09/17 13:58:42;;;;;;;5.00;2.75;;;29.40;86.20;;;30.08;40.57;97674.75;10335832;28;21024;-85
2023/09/17 14:03:46;;;;;;;5.13;2.42;;;29.60;86.30;;;29.92;39.83;97664.63;10331233;28;20222;-83
2023/09/17 14:08:49;;;;;;;4.50;2.97;;;29.20;85.40;;;30.04;40.60;97659.91;10326234;28;20230;-80
2023/09/17 14:13:55;;;;;;;2.88;2.40;;;29.40;85.90;;;30.19;39.49;97648.13;10334873;28;20233;-83
2023/09/17 14:18:59;;;;;;;4.78;2.55;;;29.50;85.10;;;29.95;40.25;97646.94;10329523;28;20321;-84
2023/09/17 14:24:02;;;;;;;5.32;2.63;;;29.40;85.00;;;30.31;39.33;97647.00;10326337;28;20290;-85
2023/09/17 14:29:07;;;;;;;5.45;3.00;;;29.70;84.40;;;30.14;38.71;97638.59;10327930;28;20254;-83
2023/09/17 14:34:10;;;;;;;3.70;2.72;;;29.50;83.20;;;29.90;39.36;97640.03;10328339;28;20237;-84
2023/09/17 14:39:14;;;;;;;5.78;2.92;;;29.20;84.10;;;29.64;39.38;97628.34;10339298;28;20223;-85
2023/09/17 14:44:19;;;;;;;4.30;2.40;;;29.00;83.50;;;29.68;40.42;97622.13;10322435;28;20574;-84
2023/09/17 14:49:22;;;;;;;5.57;2.70;;;29.00;85.20;;;29.62;40.15;97609.97;10323117;28;20651;-85
2023/09/17 14:54:26;;;;;;;3.78;2.60;;;29.00;85.10;;;29.50;40.76;97599.63;10321288;28;20227;-84
2023/09/17 14:59:31;;;;;;;4.25;2.40;;;28.90;85.40;;;29.53;40.63;97599.59;10321080;28;20675;-87
2023/09/17 15:04:34;;;;;;;5.22;3.25;;;28.90;85.30;;;29.67;41.02;97599.28;10323549;28;20257;-85
2023/09/17 15:09:38;;;;;;;3.38;2.78;;;29.00;86.50;;;29.57;41.55;97584.59;10320782;28;20231;-84
2023/09/17 15:14:44;;;;;;;4.85;2.80;;;28.90;86.80;;;29.46;41.12;97587.47;10326702;28;20257;-83
2023/09/17 15:19:48;;;;;;;5.32;3.10;;;28.90;86.40;;;29.47;41.65;97583.06;10315582;28;20227;-82
2023/09/17 15:24:51;;;;;;;4.00;3.03;;;29.00;86.60;;;29.56;41.27;97581.09;10318316;28;20254;-82
2023/09/17 15:29:56;;;;;;;4.68;3.00;;;29.10;85.80;;;29.38;41.97;97563.06;10310797;28;21074;-85
2023/09/17 15:35:01;;;;;;;4.60;3.08;;;29.00;86.60;;;29.45;42.04;97564.66;10324468;28;20223;-81
2023/09/17 15:40:05;;;;;;;3.55;3.25;;;28.90;87.10;;;29.39;42.53;97567.44;10321462;28;20390;-83
2023/09/17 15:45:11;;;;;;;4.47;3.47;;;29.00;87.50;;;29.23;43.35;97568.69;10322657;28;20814;-83
2023/09/17 15:50:14;;;;;;;5.07;3.90;;;28.70;88.70;;;29.19;43.26;97563.50;10328523;28;20288;-83
2023/09/17 15:55:19;;;;;;;5.30;3.70;;;28.70;89.20;;;29.05;43.79;97548.91;10318073;28;20249;-83
2023/09/17 16:00:27;;;;;;;5.20;3.60;;;28.50;90.00;;;29.27;43.82;97562.44;10306079;28;20230;-81
2023/09/17 16:05:30;;;;;;;4.68;3.50;;;28.50;90.00;;;29.26;42.95;97573.88;10318359;28;20266;-82
2023/09/17 16:10:34;;;;;;;4.75;3.17;;;28.70;89.10;;;29.20;43.89;97574.88;10312186;28;20305;-81
2023/09/17 16:15:38;;;;;;;4.63;3.60;;;28.60;90.10;;;28.87;45.23;97565.88;10313580;28;20227;-81
2023/09/17 16:20:42;;;;;;;3.72;3.10;;;28.30;90.80;;;28.94;45.66;97570.16;10313068;28;20762;-82
2023/09/17 16:25:45;;;;;;;3.53;3.22;;;28.20;91.10;;;28.88;44.72;97567.66;10322913;28;20289;-82
2023/09/17 16:30:50;;;;;;;4.78;3.58;;;28.20;90.80;;;28.80;45.84;97564.31;10316461;28;20770;-85
2023/09/17 16:35:53;;;;;;;4.90;3.05;;;28.00;91.70;;;28.57;45.22;97570.03;10325852;28;20223;-83
2023/09/17 16:41:01;;;;;;;4.75;2.90;;;27.80;91.10;;;28.32;45.60;97564.31;10326746;28;20230;-83
2023/09/17 16:46:05;;;;;;;6.65;3.03;;;27.60;91.20;;;28.16;45.88;97569.88;10325782;28;20262;-83
2023/09/17 16:51:09;;;;;;;4.47;3.20;;;27.40;91.40;;;28.04;46.60;97567.44;10331048;28;20310;-84
2023/09/17 16:56:12;;;;;;;3.72;2.90;;;27.20;92.00;;;27.97;46.64;97571.06;10330014;28;20238;-84
2023/09/17 17:01:17;;;;;;;4.97;3.20;;;27.10;92.20;;;27.83;47.42;97580.03;10330291;28;20919;-82
2023/09/17 17:06:21;;;;;;;3.13;2.83;;;27.00;92.50;;;27.67;48.28;97575.91;10312888;28;20258;-82
2023/09/17 17:11:24;;;;;;;6.32;3.50;;;26.80;93.00;;;27.56;49.25;97575.22;10328152;28;20262;-83
2023/09/17 17:16:33;;;;;;;4.03;3.00;;;26.60;93.90;;;27.18;51.25;97569.63;10327160;28;20234;-82
2023/09/17 17:21:37;;;;;;;5.13;3.47;;;26.30;95.60;;;26.92;52.56;97574.31;10327039;28;20222;-82
2023/09/17 17:26:42;;;;;;;5.38;4.10;;;25.90;96.80;;;26.62;54.19;97572.94;10331850;28;20237;-81
2023/09/17 17:31:48;;;;;;;5.38;3.83;;;25.60;98.00;;;26.35;55.03;97572.28;10332411;28;20214;-85
2023/09/17 17:36:52;;;;;;;8.38;5.57;;;25.40;98.40;;;26.16;56.53;97568.16;10340883;28;20225;-83
2023/09/17 17:41:56;;;;;;;5.75;4.13;;;25.10;99.20;;;25.89;57.64;97561.38;10336396;28;20237;-83
2023/09/17 17:47:02;;;;;;;7.80;4.90;;;24.90;99.90;;;25.73;58.79;97558.88;10349240;28;20241;-83
2023/09/17 17:52:06;;;;;;;5.95;4.35;;;24.70;99.90;;;25.50;59.77;97563.44;10337195;28;20226;-82
2023/09/17 17:57:10;;;;;;;5.00;3.38;;;24.50;99.90;;;25.34;61.07;97560.03;10347136;28;20695;-81
2023/09/17 18:02:16;;;;;;;5.00;3.88;;;24.30;99.90;;;25.10;62.03;97561.88;10347022;28;20233;-82
2023/09/17 18:07:21;;;;;;;6.10;5.05;;;24.10;99.90;;;24.83;62.88;97562.00;10332751;28;20237;-81
2023/09/17 18:12:24;;;;;;;4.63;4.22;;;23.90;99.90;;;24.76;64.00;97562.94;10331808;28;20228;-83
2023/09/17 18:17:29;;;;;;;5.03;4.10;;;23.70;99.90;;;24.58;65.33;97556.00;10327216;28;20237;-82
2023/09/17 18:22:33;;;;;;;5.70;3.78;;;23.60;99.90;;;24.39;65.61;97550.81;10331088;28;20292;-83
2023/09/17 18:27:38;;;;;;;3.75;3.42;;;23.40;99.90;;;24.15;66.31;97546.53;10334455;28;20244;-82
2023/09/17 18:32:43;;;;;;;7.70;4.25;;;23.20;99.90;;;24.12;67.09;97543.91;10319950;28;20244;-82
2023/09/17 18:37:46;;;;;;;7.20;5.10;;;23.20;99.90;;;23.97;68.50;97546.53;10317351;28;20227;-82
2023/09/17 18:42:49;;;;;;;5.75;3.78;;;23.00;99.90;;;23.73;69.18;97548.31;10321514;28;20234;-81
2023/09/17 18:47:54;;;;;;;4.15;3.80;;;22.80;99.90;;;23.43;69.76;97543.03;10328237;28;20254;-82
2023/09/17 18:52:57;;;;;;;3.95;3.58;;;22.60;99.90;;;23.42;70.01;97542.16;10332957;28;20226;-83
2023/09/17 18:58:01;;;;;;;4.63;3.67;;;22.50;99.90;;;23.26;70.76;97538.66;10321027;28;20247;-81
2023/09/17 19:03:08;;;;;;;4.15;3.75;;;22.30;99.90;;;22.93;72.53;97542.91;10320784;28;20322;-81
2023/09/17 19:08:12;;;;;;;4.25;3.85;;;22.00;99.90;;;22.98;72.16;97540.34;10319009;28;20613;-83
2023/09/17 19:13:17;;;;;;;4.93;3.83;;;22.00;99.90;;;22.89;73.05;97548.97;10324204;28;20293;-81
2023/09/17 19:18:21;;;;;;;4.10;3.80;;;21.90;99.90;;;22.60;74.88;97547.97;10313955;28;20305;-83
2023/09/17 19:23:25;;;;;;;4.07;3.78;;;21.60;99.90;;;22.57;74.93;97533.19;10318189;28;20747;-83
2023/09/17 19:28:29;;;;;;;4.78;4.10;;;21.50;99.90;;;22.34;75.93;97535.69;10318300;28;20284;-83
2023/09/17 19:33:34;;;;;;;5.07;4.18;;;21.40;99.90;;;22.29;76.40;97540.03;10312456;28;20254;-83
2023/09/17 19:38:37;;;;;;;4.15;3.85;;;21.30;99.90;;;22.20;76.44;97538.22;10314869;28;20227;-82
2023/09/17 19:43:42;;;;;;;5.43;4.10;;;21.20;99.90;;;22.08;77.71;97534.66;10324205;28;20223;-84
2023/09/17 19:48:47;;;;;;;4.53;4.10;;;21.10;99.90;;;22.05;77.58;97538.97;10323063;28;20235;-83
2023/09/17 19:53:50;;;;;;;4.40;4.00;;;21.10;99.90;;;21.92;78.65;97536.28;10315398;28;20223;-83
2023/09/17 19:58:55;;;;;;;4.90;4.15;;;20.90;99.90;;;21.84;80.72;97538.84;10324022;28;20938;-81
2023/09/17 20:04:04;;;;;;;4.90;4.50;;;20.80;99.90;;;21.77;81.27;97534.44;10322277;28;20223;-82
2023/09/17 20:09:16;;;;;;;5.30;4.75;;;20.70;99.90;;;21.67;82.04;97545.66;10333118;28;20234;-82
2023/09/17 20:14:39;;;;;;;5.47;4.57;;;20.60;99.90;;;21.65;83.06;97542.16;10318820;28;20223;-82
2023/09/17 20:19:48;;;;;;;5.03;4.47;;;20.50;99.90;;;21.40;84.03;97536.72;10383134;23;20233;-85
2023/09/17 20:24:51;;;;;;;5.03;4.50;;;20.40;99.90;;;21.36;84.05;97530.63;10393337;28;20230;-84
2023/09/17 20:29:55;;;;;;;4.90;4.53;;;20.40;99.90;;;21.38;84.28;97529.78;10433037;28;20240;-84
2023/09/17 20:35:07;;;;;;;4.82;4.32;;;20.40;99.90;;;21.27;84.57;97527.06;10419331;28;20225;-82
2023/09/17 20:40:18;;;;;;;5.68;4.75;;;20.30;99.90;;;21.26;83.45;97533.09;10446295;28;20229;-82
2023/09/17 20:45:26;;;;;;;4.57;4.18;;;20.20;99.90;;;21.08;83.34;97531.19;10447653;28;20240;-82
2023/09/17 20:50:33;;;;;;;5.10;4.22;;;20.10;99.90;;;21.02;84.09;97529.41;10460633;28;20241;-83
2023/09/17 20:55:36;;;;;;;4.05;3.65;;;20.10;99.90;;;20.91;83.95;97526.69;10443991;28;20777;-80
2023/09/17 21:00:40;;;;;;;5.10;4.25;;;19.90;99.90;;;20.98;84.16;97526.78;10427323;28;20255;-83